Time;durP1;ratioP1;P1;durP2;ratioP2;P2;SDS_P1;SDS_P2;PMS_P1;PMS_P2;Temp;Humidity;BMP_temperature;BMP_pressure;BME280_temperature;BME280_humidity;BME280_pressure;Samples;Min_cycle;Max_cycle;Signal;HPM_P1;HPM_P2
2021/09/20 00:01:01;;;;;;;8.23;5.97;;;;;;;16.49;59.04;101868.72;5044472;28;20660;-51
2021/09/20 00:03:26;;;;;;;8.30;5.50;;;;;;;16.55;58.68;101880.16;5039776;28;20078;-51
2021/09/20 00:05:52;;;;;;;7.90;5.38;;;;;;;16.63;59.08;101881.13;5043646;28;20430;-48
2021/09/20 00:08:17;;;;;;;7.50;5.32;;;;;;;16.46;59.10;101868.72;5046030;28;20043;-52
2021/09/20 00:10:42;;;;;;;9.32;5.60;;;;;;;16.51;59.12;101880.16;5047635;28;20063;-51
2021/09/20 00:13:08;;;;;;;7.50;5.60;;;;;;;16.44;59.56;101881.88;5046594;28;20166;-48
2021/09/20 00:15:34;;;;;;;7.53;5.20;;;;;;;16.65;58.74;101872.34;5033085;28;20522;-48
2021/09/20 00:17:59;;;;;;;7.43;5.63;;;;;;;16.56;58.74;101878.41;5045388;28;20368;-51
2021/09/20 00:20:24;;;;;;;8.98;5.50;;;;;;;16.41;59.66;101878.31;5045181;28;20509;-52
2021/09/20 00:22:52;;;;;;;8.52;5.97;;;;;;;16.55;59.03;101884.53;5048219;28;20961;-50
2021/09/20 00:25:18;;;;;;;9.60;6.00;;;;;;;16.39;59.50;101888.88;5027950;28;20505;-52
2021/09/20 00:27:43;;;;;;;8.13;5.85;;;;;;;16.53;59.42;101894.19;5021871;28;20139;-49
2021/09/20 00:30:10;;;;;;;8.80;5.90;;;;;;;16.29;60.11;101899.31;5045426;28;20410;-49
2021/09/20 00:32:35;;;;;;;7.43;5.65;;;;;;;16.44;59.58;101899.41;5043005;28;20587;-46
2021/09/20 00:35:00;;;;;;;8.77;6.00;;;;;;;16.44;59.47;101902.03;5042851;28;20066;-50
2021/09/20 00:37:26;;;;;;;8.60;6.07;;;;;;;16.49;59.74;101900.31;5042352;28;20040;-51
2021/09/20 00:39:51;;;;;;;9.48;6.20;;;;;;;16.34;60.16;101892.34;5044531;28;20048;-48
2021/09/20 00:42:17;;;;;;;10.43;6.35;;;;;;;16.31;59.89;101902.84;5041237;28;20519;-47
2021/09/20 00:44:42;;;;;;;8.48;6.15;;;;;;;16.32;59.99;101894.06;5042991;28;20833;-51
2021/09/20 00:47:08;;;;;;;9.85;6.30;;;;;;;16.15;60.25;101893.97;5043300;28;20514;-53
2021/09/20 00:49:33;;;;;;;9.43;6.07;;;;;;;16.31;60.02;101894.94;5036471;28;20450;-52
2021/09/20 00:51:59;;;;;;;8.63;6.05;;;;;;;16.22;59.13;101895.78;5024220;28;20125;-49
2021/09/20 00:54:24;;;;;;;8.82;6.30;;;;;;;15.94;60.68;101894.69;5045428;28;20044;-50
2021/09/20 00:56:49;;;;;;;9.30;6.43;;;;;;;16.33;59.22;101890.56;5046155;28;20555;-51
2021/09/20 00:59:17;;;;;;;9.20;6.10;;;;;;;16.24;59.06;101907.19;5007366;28;20043;-52
2021/09/20 01:01:42;;;;;;;8.75;5.72;;;;;;;16.29;59.25;101907.19;5035119;28;20040;-50
2021/09/20 01:04:08;;;;;;;9.23;6.10;;;;;;;16.15;59.07;101905.38;5045667;28;20122;-53
2021/09/20 01:06:33;;;;;;;8.50;6.13;;;;;;;16.19;59.43;101899.25;5043151;28;20152;-51
2021/09/20 01:08:58;;;;;;;8.00;5.88;;;;;;;16.33;58.13;101894.09;5024965;28;20128;-54
2021/09/20 01:11:26;;;;;;;7.35;5.45;;;;;;;16.30;58.02;101896.69;5045291;28;20138;-49
2021/09/20 01:13:51;;;;;;;10.23;5.70;;;;;;;16.24;58.22;101899.28;5024064;28;20056;-50
2021/09/20 01:16:16;;;;;;;9.15;5.47;;;;;;;16.16;58.27;101903.63;5042487;28;20044;-49
2021/09/20 01:18:42;;;;;;;6.70;5.10;;;;;;;16.18;58.22;101907.13;5043230;28;20040;-48
2021/09/20 01:21:07;;;;;;;7.72;5.38;;;;;;;16.14;57.86;101914.13;5042493;28;20076;-50
2021/09/20 01:23:33;;;;;;;8.05;5.47;;;;;;;16.14;58.01;101903.63;5021743;28;20068;-52
2021/09/20 01:25:58;;;;;;;11.45;5.35;;;;;;;16.13;58.10;101906.22;5044413;28;20105;-52
2021/09/20 01:28:24;;;;;;;8.32;5.22;;;;;;;15.95;58.07;101909.59;5043728;28;20045;-49
2021/09/20 01:30:49;;;;;;;9.20;5.22;;;;;;;16.03;57.72;101902.66;5046937;28;20048;-51
2021/09/20 01:33:14;;;;;;;7.00;4.95;;;;;;;15.88;58.78;101896.38;5022386;28;20067;-52
2021/09/20 01:35:40;;;;;;;8.90;5.30;;;;;;;15.76;59.02;101900.69;5037437;28;20151;-52
2021/09/20 01:38:05;;;;;;;8.00;5.32;;;;;;;15.85;59.29;101897.25;5022196;28;20056;-48
2021/09/20 01:40:31;;;;;;;7.65;5.30;;;;;;;15.82;58.41;101891.97;5048550;28;20547;-51
2021/09/20 01:42:57;;;;;;;8.00;5.20;;;;;;;15.86;58.82;101893.75;5043024;28;20059;-51
2021/09/20 01:45:25;;;;;;;9.25;5.35;;;;;;;15.83;59.37;101896.34;5023418;28;20106;-52
2021/09/20 01:47:50;;;;;;;7.53;5.22;;;;;;;15.82;58.87;101898.09;5036765;28;20512;-53
2021/09/20 01:50:16;;;;;;;8.23;5.28;;;;;;;15.81;58.45;101898.97;5044539;28;20422;-50
2021/09/20 01:52:41;;;;;;;7.00;5.20;;;;;;;15.73;58.82;101894.53;5040149;28;20148;-52
2021/09/20 01:55:07;;;;;;;8.77;5.35;;;;;;;15.68;58.24;101883.06;5043716;28;20056;-51
2021/09/20 01:57:35;;;;;;;8.63;5.15;;;;;;;15.78;58.07;101896.34;5033920;28;20132;-51
2021/09/20 02:00:00;;;;;;;7.82;5.20;;;;;;;15.70;58.91;101900.63;5045660;28;20056;-52
2021/09/20 02:02:26;;;;;;;9.32;5.30;;;;;;;15.69;58.39;101904.13;5041055;28;20043;-52
2021/09/20 02:04:51;;;;;;;7.70;5.13;;;;;;;15.80;58.31;101906.84;5039789;28;20044;-52
2021/09/20 02:07:17;;;;;;;7.63;5.22;;;;;;;15.83;57.40;101914.75;5045185;28;20036;-53
2021/09/20 02:09:42;;;;;;;8.15;5.30;;;;;;;15.96;57.75;101916.63;5038039;28;20048;-52
2021/09/20 02:12:08;;;;;;;8.55;6.05;;;;;;;15.96;56.83;101921.91;5043164;28;20545;-49
2021/09/20 02:14:33;;;;;;;8.25;5.47;;;;;;;16.06;56.53;101921.09;5039836;28;20619;-49
2021/09/20 02:16:58;;;;;;;8.50;5.28;;;;;;;16.10;56.38;101924.63;5041502;28;20044;-48
2021/09/20 02:19:25;;;;;;;7.90;5.22;;;;;;;16.13;57.18;101933.41;5044556;28;20090;-49
2021/09/20 02:21:50;;;;;;;7.72;5.40;;;;;;;16.07;56.28;101924.59;5037702;28;20052;-51
2021/09/20 02:24:16;;;;;;;8.05;5.80;;;;;;;16.04;56.02;101921.97;5042881;28;20074;-53
2021/09/20 02:26:41;;;;;;;9.10;5.53;;;;;;;16.15;56.31;101923.78;5039252;28;20822;-53
2021/09/20 02:29:07;;;;;;;8.30;5.80;;;;;;;15.71;57.54;101920.81;5049086;28;20198;-52
2021/09/20 02:31:32;;;;;;;12.25;5.60;;;;;;;15.74;57.06;101926.06;5040177;28;20040;-52
2021/09/20 02:33:58;;;;;;;8.45;5.30;;;;;;;15.73;57.03;101923.44;5042601;28;20728;-51
2021/09/20 02:36:23;;;;;;;9.23;6.03;;;;;;;15.89;56.49;101921.81;5041985;28;20050;-49
2021/09/20 02:38:49;;;;;;;10.23;5.82;;;;;;;15.91;56.54;101931.50;5042717;28;20115;-50
2021/09/20 02:41:14;;;;;;;8.45;5.65;;;;;;;16.07;56.11;101937.75;5042669;28;20412;-51
2021/09/20 02:43:40;;;;;;;9.27;5.53;;;;;;;16.17;55.01;101948.34;5037150;28;21304;-47
2021/09/20 02:46:05;;;;;;;11.32;5.40;;;;;;;16.28;56.43;101955.47;5030597;28;20075;-51
2021/09/20 02:48:31;;;;;;;8.25;5.63;;;;;;;16.31;56.70;101955.47;5044733;28;20041;-49
2021/09/20 02:50:56;;;;;;;7.70;5.55;;;;;;;16.20;56.45;101952.75;5039091;28;20033;-50
2021/09/20 02:53:22;;;;;;;10.88;5.80;;;;;;;15.97;57.62;101949.97;5039930;28;20050;-55
2021/09/20 02:55:48;;;;;;;8.65;5.68;;;;;;;16.09;57.49;101942.16;5039616;28;20263;-54
2021/09/20 02:58:13;;;;;;;8.00;5.70;;;;;;;16.04;58.32;101943.84;5024605;28;20052;-50
2021/09/20 03:00:39;;;;;;;8.85;6.05;;;;;;;16.05;58.93;101950.88;5049630;28;20109;-50
2021/09/20 03:03:06;;;;;;;10.93;6.65;;;;;;;16.00;60.01;101955.22;5046282;28;20041;-50
2021/09/20 03:05:31;;;;;;;9.98;7.05;;;;;;;15.53;62.81;101956.53;5041257;28;20071;-53
2021/09/20 03:08:00;;;;;;;10.20;6.88;;;;;;;15.22;62.34;101961.44;5027747;28;20559;-55
2021/09/20 03:10:26;;;;;;;11.73;6.70;;;;;;;15.59;60.72;101962.75;5046712;28;20040;-52
2021/09/20 03:12:52;;;;;;;9.63;6.97;;;;;;;15.60;62.91;101967.16;5044436;28;20043;-54
2021/09/20 03:15:17;;;;;;;10.77;6.70;;;;;;;15.69;60.34;101969.84;5049615;28;20467;-49
2021/09/20 03:17:42;;;;;;;9.07;6.47;;;;;;;15.69;59.98;101963.72;5040443;28;20036;-52
2021/09/20 03:20:09;;;;;;;10.05;6.88;;;;;;;15.52;62.30;101965.25;5048487;28;20036;-50
2021/09/20 03:22:34;;;;;;;8.73;6.35;;;;;;;15.56;61.22;101964.44;5045337;28;20036;-49
2021/09/20 03:25:00;;;;;;;9.55;6.50;;;;;;;15.56;61.01;101965.31;5043863;28;20040;-53
2021/09/20 03:27:25;;;;;;;10.07;6.90;;;;;;;15.39;63.01;101966.88;5040306;28;20037;-51
2021/09/20 03:29:51;;;;;;;9.57;6.82;;;;;;;15.41;61.52;101968.66;5025117;28;20417;-51
2021/09/20 03:32:16;;;;;;;10.52;6.93;;;;;;;15.35;61.86;101965.97;5030547;28;20039;-52
2021/09/20 03:34:41;;;;;;;10.95;6.93;;;;;;;15.40;61.60;101969.53;5042694;28;20094;-51
2021/09/20 03:37:07;;;;;;;9.48;6.35;;;;;;;15.51;59.33;101971.38;5044602;28;20638;-49
2021/09/20 03:39:32;;;;;;;9.95;6.65;;;;;;;15.46;61.01;101973.97;5018640;28;20483;-50
2021/09/20 03:41:58;;;;;;;11.02;7.03;;;;;;;15.43;60.00;101972.16;5044795;28;21165;-49
2021/09/20 03:44:23;;;;;;;12.35;6.82;;;;;;;15.43;59.55;101966.03;5043300;28;20052;-51
2021/09/20 03:46:48;;;;;;;10.80;6.82;;;;;;;15.37;58.62;101969.47;5049268;28;20076;-51
2021/09/20 03:49:14;;;;;;;10.98;7.20;;;;;;;15.46;59.64;101979.22;5046617;28;20193;-53
2021/09/20 03:51:40;;;;;;;12.27;7.15;;;;;;;15.32;59.67;101981.69;5035181;28;20043;-52
2021/09/20 03:54:05;;;;;;;10.68;6.80;;;;;;;15.27;57.95;101983.38;5028551;28;20049;-51
2021/09/20 03:56:30;;;;;;;10.40;6.97;;;;;;;15.48;58.28;101988.00;5046976;28;20044;-48
2021/09/20 03:58:56;;;;;;;10.50;7.13;;;;;;;15.43;58.58;101994.94;5047406;28;20571;-50
2021/09/20 04:01:21;;;;;;;10.57;7.07;;;;;;;15.49;59.37;102002.88;5044611;28;20650;-52
2021/09/20 04:03:47;;;;;;;9.82;6.75;;;;;;;15.41;57.53;101999.31;5039651;28;20032;-50
2021/09/20 04:06:12;;;;;;;11.85;7.00;;;;;;;15.35;57.88;101993.97;5043355;28;20052;-49
2021/09/20 04:08:38;;;;;;;12.48;6.90;;;;;;;15.50;57.22;102002.03;5042169;28;20193;-49
2021/09/20 04:11:03;;;;;;;12.45;6.65;;;;;;;15.54;58.37;102003.00;5030119;28;20047;-50
2021/09/20 04:13:30;;;;;;;10.52;7.13;;;;;;;15.41;58.90;102002.81;5039636;28;20047;-53
2021/09/20 04:15:55;;;;;;;10.48;6.45;;;;;;;15.40;57.01;102002.78;5043821;28;20123;-48
2021/09/20 04:18:22;;;;;;;11.43;7.30;;;;;;;15.41;57.79;102002.81;5052399;28;20040;-52
2021/09/20 04:20:49;;;;;;;9.30;6.80;;;;;;;15.49;56.84;102008.13;5044395;28;20120;-50
2021/09/20 04:23:15;;;;;;;10.30;6.72;;;;;;;15.61;56.69;102010.97;5046879;28;20387;-53
2021/09/20 04:25:40;;;;;;;11.25;6.70;;;;;;;15.53;56.44;102012.63;5012676;28;20047;-52
2021/09/20 04:28:05;;;;;;;11.07;6.97;;;;;;;15.46;56.86;102017.75;5046717;28;20117;-53
2021/09/20 04:30:31;;;;;;;12.27;7.20;;;;;;;15.47;57.69;102023.03;5026090;28;20050;-50
2021/09/20 04:32:56;;;;;;;10.50;7.07;;;;;;;15.28;58.30;102026.28;5046019;28;20132;-52
2021/09/20 04:35:21;;;;;;;10.48;7.38;;;;;;;15.21;57.30;102027.09;5045269;28;20964;-53
2021/09/20 04:37:47;;;;;;;10.13;7.07;;;;;;;15.23;58.71;102020.09;5038716;28;21715;-49
2021/09/20 04:40:12;;;;;;;10.43;7.10;;;;;;;15.14;57.35;102027.84;5042705;28;20103;-52
2021/09/20 04:42:38;;;;;;;11.02;7.22;;;;;;;15.24;57.59;102028.03;5046362;28;20579;-52
2021/09/20 04:45:04;;;;;;;10.55;7.38;;;;;;;15.29;57.62;102038.56;5042068;28;20349;-51
2021/09/20 04:47:29;;;;;;;9.60;6.40;;;;;;;15.25;57.02;102035.00;5039137;28;20101;-53
2021/09/20 04:49:55;;;;;;;10.13;7.10;;;;;;;15.20;56.40;102041.97;5044582;28;20408;-53
2021/09/20 04:52:21;;;;;;;14.20;7.28;;;;;;;15.21;56.25;102038.47;5045358;28;20045;-51
2021/09/20 04:54:46;;;;;;;9.77;6.93;;;;;;;15.23;57.01;102046.38;5044963;28;20040;-51
2021/09/20 04:57:11;;;;;;;11.90;7.20;;;;;;;15.19;57.18;102047.19;5045378;28;20072;-51
2021/09/20 04:59:37;;;;;;;13.07;7.32;;;;;;;15.26;57.67;102055.16;5019489;28;20310;-53
2021/09/20 05:02:03;;;;;;;9.27;6.50;;;;;;;15.20;56.08;102051.56;5049309;28;20048;-54
2021/09/20 05:04:28;;;;;;;11.18;7.28;;;;;;;15.09;56.42;102056.69;5041876;28;20394;-52
2021/09/20 05:06:54;;;;;;;10.35;7.03;;;;;;;15.12;56.47;102054.13;5043228;28;20029;-51
2021/09/20 05:09:19;;;;;;;11.90;6.72;;;;;;;15.04;56.56;102053.13;5042424;28;20098;-54
2021/09/20 05:11:45;;;;;;;9.48;6.70;;;;;;;15.18;55.73;102053.31;5036689;28;20416;-52
2021/09/20 05:14:10;;;;;;;10.35;6.40;;;;;;;15.17;55.90;102060.31;5042515;28;20499;-50
2021/09/20 05:16:36;;;;;;;11.43;6.70;;;;;;;15.21;55.79;102063.84;5043448;28;20039;-51
2021/09/20 05:19:01;;;;;;;9.65;6.38;;;;;;;15.14;56.23;102073.41;5022538;28;20037;-52
2021/09/20 05:21:27;;;;;;;11.20;6.32;;;;;;;15.19;55.32;102076.06;5042756;28;20067;-48
2021/09/20 05:23:52;;;;;;;10.05;6.75;;;;;;;15.14;55.94;102065.50;5038090;28;20048;-49
2021/09/20 05:26:18;;;;;;;11.07;7.05;;;;;;;15.11;55.28;102083.00;5046061;28;20043;-49
2021/09/20 05:28:44;;;;;;;9.40;6.78;;;;;;;15.06;57.02;102077.69;5042338;28;20044;-52
2021/09/20 05:31:09;;;;;;;11.63;6.88;;;;;;;15.17;56.96;102077.81;5029081;28;20404;-53
2021/09/20 05:33:35;;;;;;;10.02;6.90;;;;;;;15.20;55.83;102084.00;5037359;28;20043;-50
2021/09/20 05:36:05;;;;;;;9.45;6.72;;;;;;;15.19;54.72;102076.97;5022763;28;20047;-49
2021/09/20 05:38:31;;;;;;;10.93;6.90;;;;;;;15.21;55.19;102079.63;5037648;28;20043;-53
2021/09/20 05:40:56;;;;;;;10.73;7.22;;;;;;;15.15;56.00;102087.41;4999866;28;20033;-52
2021/09/20 05:43:22;;;;;;;10.80;7.10;;;;;;;15.07;54.53;102092.56;5044552;28;20044;-49
2021/09/20 05:45:47;;;;;;;11.80;7.38;;;;;;;15.16;54.48;102094.44;5014300;28;20041;-48
2021/09/20 05:48:15;;;;;;;12.05;7.25;;;;;;;14.97;55.54;102096.81;5043808;28;20424;-47
2021/09/20 05:50:40;;;;;;;11.52;7.18;;;;;;;14.91;54.78;102098.44;5030071;28;20052;-52
2021/09/20 05:53:06;;;;;;;10.02;6.95;;;;;;;14.98;56.00;102102.94;5041496;28;20051;-49
2021/09/20 05:55:31;;;;;;;11.43;6.85;;;;;;;15.22;54.17;102102.41;5034403;28;20045;-49
2021/09/20 05:57:56;;;;;;;10.93;7.32;;;;;;;15.03;54.27;102102.16;5043418;28;20044;-53
2021/09/20 06:00:22;;;;;;;11.77;6.82;;;;;;;15.21;54.33;102106.78;5048198;28;20101;-53
2021/09/20 06:02:48;;;;;;;10.70;6.60;;;;;;;15.16;54.39;102104.94;5041678;28;20185;-52
2021/09/20 06:05:14;;;;;;;13.00;6.90;;;;;;;15.06;54.40;102106.56;5042452;28;20052;-50
2021/09/20 06:07:41;;;;;;;11.00;7.13;;;;;;;15.11;55.45;102109.25;5034760;28;20075;-52
2021/09/20 06:10:07;;;;;;;11.57;7.57;;;;;;;15.18;55.25;102116.38;5022877;28;20613;-47
2021/09/20 06:12:32;;;;;;;10.23;6.60;;;;;;;15.15;54.35;102116.31;5040831;28;20040;-50
2021/09/20 06:14:58;;;;;;;10.80;7.50;;;;;;;15.18;54.12;102125.13;5043091;28;20047;-50
2021/09/20 06:17:25;;;;;;;11.57;7.25;;;;;;;15.24;54.57;102126.97;5046631;28;20396;-52
2021/09/20 06:19:51;;;;;;;10.60;6.78;;;;;;;15.25;55.38;102128.69;5019064;28;20060;-51
2021/09/20 06:22:16;;;;;;;11.30;7.13;;;;;;;15.34;54.37;102134.09;5043494;28;20029;-49
2021/09/20 06:24:42;;;;;;;12.65;7.43;;;;;;;15.34;54.48;102128.84;5041529;28;20044;-51
2021/09/20 06:27:08;;;;;;;11.48;7.40;;;;;;;15.49;54.35;102129.03;5028778;28;20131;-50
2021/09/20 06:29:33;;;;;;;11.70;6.97;;;;;;;15.29;55.33;102133.16;5028393;28;20063;-48
2021/09/20 06:31:58;;;;;;;9.82;7.13;;;;;;;15.39;55.13;102130.66;5043299;28;20053;-52
2021/09/20 06:34:24;;;;;;;9.13;6.55;;;;;;;15.39;54.08;102132.41;5040786;28;20036;-52
2021/09/20 06:36:50;;;;;;;10.60;6.95;;;;;;;15.43;54.35;102136.84;5047297;28;20508;-48
2021/09/20 06:39:15;;;;;;;12.18;7.60;;;;;;;15.56;55.05;102141.44;5040869;28;20047;-50
2021/09/20 06:41:41;;;;;;;9.77;6.88;;;;;;;15.49;54.38;102134.28;5037050;28;20421;-52
2021/09/20 06:44:06;;;;;;;11.57;7.35;;;;;;;15.59;54.88;102130.09;5040546;28;20186;-49
2021/09/20 06:46:33;;;;;;;10.55;7.05;;;;;;;15.47;54.57;102137.78;5039741;28;20036;-53
2021/09/20 06:48:58;;;;;;;10.40;6.93;;;;;;;15.61;53.86;102129.25;5038827;28;20044;-52
2021/09/20 06:51:25;;;;;;;14.30;6.93;;;;;;;15.71;54.22;102141.66;5044381;28;20083;-52
2021/09/20 06:53:51;;;;;;;12.68;7.43;;;;;;;15.95;54.31;102137.53;5033656;28;20052;-49
2021/09/20 06:56:17;;;;;;;12.13;7.55;;;;;;;15.99;53.89;102136.69;5040046;28;20039;-49
2021/09/20 06:58:43;;;;;;;10.70;7.13;;;;;;;16.31;54.34;102134.41;5044482;28;20023;-49
2021/09/20 07:01:08;;;;;;;13.05;7.63;;;;;;;16.72;52.26;102140.97;5036392;28;20040;-54
2021/09/20 07:03:34;;;;;;;18.33;7.32;;;;;;;16.95;50.64;102139.41;5012080;28;20516;-49
2021/09/20 07:05:59;;;;;;;10.73;7.05;;;;;;;17.48;49.56;102143.25;5037723;28;20143;-49
2021/09/20 07:08:24;;;;;;;9.80;6.88;;;;;;;18.07;47.28;102132.94;5023756;28;20134;-50
2021/09/20 07:10:51;;;;;;;9.20;7.05;;;;;;;18.49;46.35;102132.13;5042831;28;20058;-48
2021/09/20 07:13:17;;;;;;;10.77;6.97;;;;;;;18.77;46.55;102135.72;5038113;28;20037;-51
2021/09/20 07:15:42;;;;;;;9.77;7.05;;;;;;;19.23;45.56;102132.13;5036693;28;20056;-50
2021/09/20 07:18:08;;;;;;;8.52;6.57;;;;;;;19.52;43.91;102139.16;5018815;28;20144;-48
2021/09/20 07:20:33;;;;;;;11.23;7.10;;;;;;;19.88;44.58;102143.41;5042102;28;20041;-48
2021/09/20 07:22:59;;;;;;;10.32;6.82;;;;;;;20.06;43.84;102151.25;5024669;28;21450;-49
2021/09/20 07:25:24;;;;;;;9.73;6.50;;;;;;;20.06;43.20;102154.78;5041102;28;20078;-49
2021/09/20 07:27:52;;;;;;;9.35;6.78;;;;;;;19.43;44.81;102159.41;5018002;28;20688;-47
2021/09/20 07:30:18;;;;;;;9.07;6.85;;;;;;;19.08;43.13;102163.00;5043177;28;20206;-52
2021/09/20 07:32:48;;;;;;;10.15;6.65;;;;;;;18.66;44.74;102155.97;5026170;28;20303;-49
2021/09/20 07:35:16;;;;;;;9.27;7.45;;;;;;;18.17;45.25;102161.16;5036826;28;20044;-50
2021/09/20 07:37:43;;;;;;;10.30;7.15;;;;;;;18.30;46.08;102164.69;5032109;28;20119;-52
2021/09/20 07:40:10;;;;;;;11.07;7.00;;;;;;;18.05;45.88;102167.25;5043985;28;20128;-49
2021/09/20 07:42:35;;;;;;;11.70;7.40;;;;;;;17.96;46.92;102168.97;5044694;28;20049;-49
2021/09/20 07:45:01;;;;;;;11.32;7.75;;;;;;;17.85;47.14;102179.50;5042679;28;20109;-48
2021/09/20 07:47:26;;;;;;;9.75;7.57;;;;;;;18.11;47.11;102176.97;5023078;28;20102;-48
2021/09/20 07:49:51;;;;;;;9.40;7.18;;;;;;;17.75;46.06;102178.56;5039421;28;20269;-48
2021/09/20 07:52:17;;;;;;;13.65;7.22;;;;;;;17.68;45.94;102183.81;5047741;28;20047;-49
2021/09/20 07:54:42;;;;;;;10.05;6.93;;;;;;;17.53;47.17;102188.97;5047762;28;20041;-51
2021/09/20 07:57:08;;;;;;;10.98;6.70;;;;;;;17.70;47.72;102187.34;5041011;28;20944;-48
2021/09/20 07:59:34;;;;;;;11.38;6.65;;;;;;;17.45;48.13;102181.88;5042356;28;20556;-50
2021/09/20 08:01:59;;;;;;;12.18;6.97;;;;;;;17.74;48.71;102197.94;5041156;28;20331;-53
2021/09/20 08:04:24;;;;;;;11.32;6.40;;;;;;;17.87;46.70;102198.84;5040462;28;20132;-50
2021/09/20 08:06:50;;;;;;;8.95;6.70;;;;;;;17.87;46.50;102198.84;5044950;28;20044;-53
2021/09/20 08:09:15;;;;;;;12.95;6.93;;;;;;;17.96;47.14;102198.00;5049204;28;20403;-49
2021/09/20 08:11:40;;;;;;;9.57;6.60;;;;;;;17.59;46.88;102196.91;5042210;28;20051;-52
2021/09/20 08:14:06;;;;;;;10.57;6.70;;;;;;;17.53;48.98;102202.16;5042878;28;20038;-49
2021/09/20 08:16:31;;;;;;;10.40;7.28;;;;;;;17.93;47.17;102201.50;5048278;28;20987;-52
2021/09/20 08:18:57;;;;;;;11.65;7.55;;;;;;;18.15;47.31;102223.59;5047093;28;20460;-53
2021/09/20 08:21:22;;;;;;;10.48;7.50;;;;;;;18.00;45.49;102211.22;5042685;28;20040;-53
2021/09/20 08:23:47;;;;;;;10.85;7.53;;;;;;;18.03;46.51;102219.16;5020102;28;20041;-53
2021/09/20 08:26:13;;;;;;;15.68;7.95;;;;;;;17.96;45.51;102225.28;5047644;28;20473;-49
2021/09/20 08:28:38;;;;;;;11.88;8.30;;;;;;;17.80;45.03;102220.81;5045478;28;20622;-53
2021/09/20 08:31:04;;;;;;;10.77;8.32;;;;;;;17.95;44.93;102225.25;5026417;28;20664;-50
2021/09/20 08:33:32;;;;;;;14.07;9.35;;;;;;;18.04;44.36;102226.19;5047499;28;20052;-51
2021/09/20 08:35:57;;;;;;;12.48;9.40;;;;;;;17.97;45.36;102227.03;5038991;28;20768;-47
2021/09/20 08:38:23;;;;;;;13.80;9.90;;;;;;;18.07;44.79;102227.94;5048514;28;20122;-54
2021/09/20 08:40:48;;;;;;;13.75;9.15;;;;;;;18.06;44.34;102242.03;5045663;28;20051;-50
2021/09/20 08:43:14;;;;;;;16.13;9.95;;;;;;;18.15;43.69;102232.41;5046558;28;20094;-52
2021/09/20 08:45:40;;;;;;;12.90;9.70;;;;;;;18.18;44.71;102236.78;5036135;28;20048;-51
2021/09/20 08:48:06;;;;;;;13.05;9.13;;;;;;;18.28;43.05;102235.97;5045927;28;20047;-51
2021/09/20 08:50:35;;;;;;;14.55;8.88;;;;;;;17.88;43.81;102234.03;5026142;28;20044;-51
2021/09/20 08:53:01;;;;;;;13.98;9.75;;;;;;;17.95;43.23;102227.91;5049914;28;20044;-48
2021/09/20 08:55:27;;;;;;;14.15;9.45;;;;;;;18.12;42.54;102240.28;5044487;28;20126;-49
2021/09/20 08:57:52;;;;;;;12.48;9.23;;;;;;;18.24;42.07;102250.00;5036314;28;20687;-52
2021/09/20 09:00:18;;;;;;;14.90;9.57;;;;;;;18.28;41.92;102237.72;5045329;28;20043;-54
2021/09/20 09:02:43;;;;;;;14.85;9.68;;;;;;;18.23;43.37;102240.34;5046002;28;20040;-52
2021/09/20 09:05:27;;;;;;;12.70;9.23;;;;;;;18.25;43.00;102235.94;5044483;28;20040;-51
2021/09/20 09:08:05;;;;;;;13.32;9.63;;;;;;;18.25;44.40;102249.13;5039781;28;20044;-54
2021/09/20 09:10:35;;;;;;;13.82;9.90;;;;;;;18.25;43.65;102249.13;5043152;28;20044;-51
2021/09/20 09:13:05;;;;;;;12.07;9.43;;;;;;;18.31;42.24;102264.13;5021304;28;20037;-52
2021/09/20 09:15:32;;;;;;;14.55;10.30;;;;;;;17.79;43.77;102248.94;5043866;28;20049;-51
2021/09/20 09:17:58;;;;;;;14.10;10.18;;;;;;;17.96;44.10;102250.78;5043461;28;20581;-51
2021/09/20 09:20:26;;;;;;;12.23;9.27;;;;;;;18.47;42.86;102250.09;5039547;28;20036;-50
2021/09/20 09:22:52;;;;;;;12.57;9.60;;;;;;;18.47;42.80;102250.09;5046318;28;20044;-49
2021/09/20 09:25:34;;;;;;;17.13;10.07;;;;;;;18.38;43.08;102256.22;5041187;28;20058;-49
2021/09/20 09:28:02;;;;;;;13.02;9.13;;;;;;;18.74;42.31;102262.50;5039113;28;20256;-50
2021/09/20 09:30:30;;;;;;;12.10;9.70;;;;;;;18.65;41.85;102247.53;5032449;28;20036;-49
2021/09/20 09:33:09;;;;;;;13.02;9.30;;;;;;;18.99;41.06;102261.66;5023266;28;20037;-50
2021/09/20 09:35:35;;;;;;;14.07;9.98;;;;;;;18.38;40.90;102255.34;5040429;28;20109;-52
2021/09/20 09:38:04;;;;;;;14.35;9.23;;;;;;;18.52;41.75;102254.53;5041400;28;20136;-54
2021/09/20 09:40:31;;;;;;;12.48;9.52;;;;;;;18.55;42.36;102269.50;5041465;28;20470;-54
2021/09/20 09:43:01;;;;;;;14.32;9.50;;;;;;;18.53;42.35;102260.69;5023256;28;20063;-54
2021/09/20 09:45:32;;;;;;;14.95;9.70;;;;;;;18.40;42.09;102264.16;5021384;28;20036;-53
2021/09/20 09:48:06;;;;;;;13.90;9.85;;;;;;;18.66;42.35;102262.53;5037051;28;20072;-53
2021/09/20 09:50:32;;;;;;;14.82;10.52;;;;;;;18.34;42.31;102261.50;5045358;28;20055;-51
2021/09/20 09:52:58;;;;;;;13.85;9.55;;;;;;;18.78;44.36;102266.94;5049066;28;20037;-49
2021/09/20 09:55:24;;;;;;;17.00;10.40;;;;;;;18.64;43.75;102261.63;5040049;28;20288;-48
2021/09/20 09:57:51;;;;;;;13.23;9.68;;;;;;;18.43;42.64;102266.81;5035256;28;20075;-49
2021/09/20 10:00:18;;;;;;;13.77;10.23;;;;;;;18.58;43.22;102266.91;5010681;28;20420;-52
2021/09/20 10:02:46;;;;;;;13.30;9.50;;;;;;;18.57;42.90;102259.84;5027075;28;20512;-50
2021/09/20 10:05:16;;;;;;;15.15;9.65;;;;;;;18.59;43.24;102258.09;5040911;28;20506;-50
2021/09/20 10:07:44;;;;;;;12.93;9.68;;;;;;;18.70;44.37;102255.47;5039076;28;20047;-53
2021/09/20 10:10:23;;;;;;;12.70;9.40;;;;;;;18.89;43.69;102265.19;5043752;28;20055;-50
2021/09/20 10:12:50;;;;;;;18.08;9.75;;;;;;;18.57;43.39;102255.44;5043477;28;20033;-53
2021/09/20 10:15:17;;;;;;;14.27;9.82;;;;;;;18.72;42.95;102267.81;5023629;28;20484;-52
2021/09/20 10:17:43;;;;;;;13.18;10.23;;;;;;;18.60;44.22;102267.78;5040681;28;20072;-51
2021/09/20 10:20:16;;;;;;;13.90;9.80;;;;;;;18.76;45.13;102277.50;5041552;28;20655;-49
2021/09/20 10:22:41;;;;;;;17.27;10.25;;;;;;;18.51;45.28;102265.06;5011078;28;20525;-50
2021/09/20 10:25:09;;;;;;;12.65;9.55;;;;;;;18.61;44.44;102259.84;5041250;28;20044;-54
2021/09/20 10:27:34;;;;;;;13.88;9.73;;;;;;;18.50;43.82;102269.47;5040579;28;20048;-48
2021/09/20 10:30:08;;;;;;;14.50;9.20;;;;;;;18.69;45.16;102265.16;5040286;28;20029;-52
2021/09/20 10:32:34;;;;;;;10.75;8.70;;;;;;;18.87;44.48;102267.81;5037479;28;20045;-49
2021/09/20 10:35:34;;;;;;;12.52;9.27;;;;;;;18.58;44.70;102269.53;5035345;28;20067;-53
2021/09/20 10:38:02;;;;;;;11.65;8.18;;;;;;;18.95;44.65;102260.78;5009315;28;20047;-51
2021/09/20 10:40:28;;;;;;;11.35;8.82;;;;;;;18.91;45.19;102264.28;5043136;28;20434;-50
2021/09/20 10:43:03;;;;;;;14.90;9.48;;;;;;;18.89;42.85;102278.41;5045318;28;20041;-54
2021/09/20 10:45:43;;;;;;;16.05;9.50;;;;;;;18.61;44.67;102272.16;5040053;28;20048;-48
2021/09/20 10:48:18;;;;;;;13.57;9.90;;;;;;;18.59;43.03;102272.19;5023879;28;21282;-53
2021/09/20 10:50:58;;;;;;;12.23;8.98;;;;;;;18.83;44.01;102279.28;5046460;28;20464;-51
2021/09/20 10:53:32;;;;;;;13.18;9.80;;;;;;;18.64;43.42;102273.06;5042649;28;20071;-53
2021/09/20 10:56:07;;;;;;;14.77;9.73;;;;;;;18.78;42.96;102266.94;5036098;28;20616;-55
2021/09/20 10:58:37;;;;;;;12.95;9.27;;;;;;;18.80;44.79;102262.53;5040912;28;20128;-51
2021/09/20 11:01:12;;;;;;;17.20;9.45;;;;;;;19.04;44.44;102263.44;5039217;28;20064;-53
2021/09/20 11:03:37;;;;;;;12.75;9.23;;;;;;;18.88;43.47;102276.63;5032075;28;20119;-52
2021/09/20 11:06:36;;;;;;;12.50;8.73;;;;;;;19.06;42.67;102266.09;5042831;28;20393;-53
2021/09/20 11:09:08;;;;;;;15.65;9.75;;;;;;;18.91;42.47;102268.69;5008872;28;20458;-49
2021/09/20 11:11:36;;;;;;;14.88;8.90;;;;;;;18.95;43.75;102276.66;5038568;28;20049;-48
2021/09/20 11:14:08;;;;;;;17.35;9.35;;;;;;;18.98;42.45;102283.69;5041392;28;20044;-52
2021/09/20 11:17:01;;;;;;;13.32;9.20;;;;;;;19.04;42.72;102295.16;5043661;28;20076;-48